createdAt,value
2022-08-18T04:00:25.809Z,0.00
2022-08-18T04:05:25.757Z,4.00
2022-08-18T04:10:25.704Z,4.00
2022-08-18T04:15:32.750Z,12.00
2022-08-18T04:20:32.628Z,16.00
2022-08-18T04:25:29.512Z,28.00
2022-08-18T04:30:26.480Z,36.00
2022-08-18T04:35:25.433Z,56.00
2022-08-18T04:40:25.619Z,64.00
2022-08-18T04:45:25.321Z,80.00
2022-08-18T04:50:25.273Z,92.00
2022-08-18T04:55:25.205Z,104.00
2022-08-18T05:00:25.155Z,112.00
2022-08-18T05:05:25.108Z,96.00
2022-08-18T05:10:25.057Z,96.00
2022-08-18T05:15:25.004Z,108.00
2022-08-18T05:20:24.940Z,120.00
2022-08-18T05:25:24.888Z,112.00
2022-08-18T05:30:24.837Z,136.00
2022-08-18T05:35:24.783Z,152.00
2022-08-18T05:40:24.754Z,220.00
2022-08-18T05:45:24.672Z,192.00
2022-08-18T05:50:24.620Z,276.00
2022-08-18T05:55:24.563Z,484.00
2022-08-18T06:00:24.516Z,728.00
2022-08-18T06:05:24.451Z,660.00
2022-08-18T06:10:24.390Z,636.00
2022-08-18T06:15:24.347Z,628.00
2022-08-18T06:20:24.287Z,616.00
2022-08-18T06:25:24.234Z,824.00
2022-08-18T06:30:24.187Z,788.00
2022-08-18T06:35:24.130Z,988.00
2022-08-18T06:40:24.073Z,1084.00
2022-08-18T06:45:24.019Z,1220.00
2022-08-18T06:50:24.966Z,1004.00
2022-08-18T06:55:23.908Z,1568.00
2022-08-18T07:00:23.878Z,1976.00
2022-08-18T07:05:23.802Z,1644.00
2022-08-18T07:10:23.746Z,1980.00
2022-08-18T07:15:23.691Z,3852.00
2022-08-18T07:20:23.791Z,2768.00
2022-08-18T07:25:23.584Z,2168.00
2022-08-18T07:30:23.605Z,2080.00
2022-08-18T07:35:23.482Z,1568.00
2022-08-18T07:40:23.514Z,1792.00
2022-08-18T07:45:23.992Z,2176.00
2022-08-18T07:50:55.155Z,2260.00
2022-08-18T07:55:24.247Z,2636.00
2022-08-18T08:00:35.435Z,2700.00
2022-08-18T08:05:24.136Z,3004.00
2022-08-18T08:10:23.081Z,2996.00
2022-08-18T08:15:27.189Z,1752.00
2022-08-18T08:20:22.974Z,2272.00
2022-08-18T08:25:45.279Z,2196.00
2022-08-18T08:30:23.873Z,1972.00
2022-08-18T08:35:50.159Z,1700.00
2022-08-18T08:40:23.829Z,2304.00
2022-08-18T08:45:22.698Z,3696.00
2022-08-18T08:50:22.644Z,3464.00
2022-08-18T08:55:22.587Z,3756.00
2022-08-18T09:00:22.550Z,3856.00
2022-08-18T09:05:22.478Z,4460.00
2022-08-18T09:10:22.421Z,5108.00
2022-08-18T09:15:22.379Z,9680.00
2022-08-18T09:20:22.350Z,11772.00
2022-08-18T09:25:22.247Z,10332.00
2022-08-18T09:30:22.198Z,7600.00
2022-08-18T09:35:23.069Z,7120.00
2022-08-18T09:40:38.644Z,7932.00
2022-08-18T09:45:23.042Z,9552.00
2022-08-18T09:50:27.255Z,9992.00
2022-08-18T09:55:22.938Z,12572.00
2022-08-18T10:00:24.228Z,10212.00
2022-08-18T10:05:22.415Z,7520.00
2022-08-18T10:10:59.339Z,6136.00
2022-08-18T10:15:33.082Z,6704.00
2022-08-18T10:21:33.518Z,8316.00
2022-08-18T10:26:33.162Z,8660.00
2022-08-18T10:31:33.109Z,8092.00
2022-08-18T10:36:33.061Z,7972.00
2022-08-18T10:41:33.002Z,7968.00
2022-08-18T10:46:35.006Z,7840.00
2022-08-18T10:51:58.040Z,7828.00
2022-08-18T10:56:33.848Z,7796.00
2022-08-18T11:01:33.011Z,8048.00
2022-08-18T11:06:32.749Z,8608.00
2022-08-18T11:11:37.235Z,10668.00
2022-08-18T11:16:33.635Z,10324.00
2022-08-18T11:21:32.582Z,9280.00
2022-08-18T11:26:32.525Z,9712.00
2022-08-18T11:31:32.464Z,7200.00
2022-08-18T11:36:32.418Z,5364.00
2022-08-18T11:46:33.327Z,6768.00
2022-08-18T11:51:32.653Z,7400.00
2022-08-18T12:01:40.887Z,7112.00
2022-08-18T12:06:33.100Z,7716.00
2022-08-18T12:11:32.041Z,6808.00
2022-08-18T12:16:31.994Z,7192.00
2022-08-18T12:21:31.941Z,8216.00
2022-08-18T12:26:38.982Z,8228.00
2022-08-18T12:31:47.570Z,8464.00
2022-08-18T12:36:32.776Z,8536.00
2022-08-18T12:41:31.724Z,6804.00
2022-08-18T12:46:31.671Z,5784.00
2022-08-18T12:51:31.621Z,7312.00
2022-08-18T12:56:31.572Z,7216.00
2022-08-18T13:01:31.649Z,6864.00
2022-08-18T13:06:31.458Z,7848.00
2022-08-18T13:11:31.404Z,6816.00
2022-08-18T13:16:54.165Z,7448.00
2022-08-18T13:21:40.895Z,7848.00
2022-08-18T13:26:32.230Z,8380.00
2022-08-18T13:31:32.781Z,9352.00
2022-08-18T13:36:31.144Z,8520.00
2022-08-18T13:41:31.088Z,6816.00
2022-08-18T13:46:31.475Z,6504.00
2022-08-18T13:51:30.984Z,6580.00
2022-08-18T13:56:31.638Z,7700.00
2022-08-18T14:01:45.101Z,7908.00
2022-08-18T14:06:31.809Z,8132.00
2022-08-18T14:11:32.806Z,8048.00
2022-08-18T14:16:30.813Z,8296.00
2022-08-18T14:21:30.644Z,7544.00
2022-08-18T14:26:30.591Z,6236.00
2022-08-18T14:31:30.533Z,5720.00
2022-08-18T14:36:30.593Z,5916.00
2022-08-18T14:41:30.696Z,4380.00
2022-08-18T14:46:32.694Z,4012.00
2022-08-18T14:51:30.299Z,4408.00
2022-08-18T14:56:33.398Z,6160.00
2022-08-18T15:01:34.902Z,6444.00
2022-08-18T15:06:30.129Z,7044.00
2022-08-18T15:11:31.901Z,7444.00
2022-08-18T15:16:32.260Z,6284.00
2022-08-18T15:21:38.526Z,6056.00
2022-08-18T15:26:29.911Z,5620.00
2022-08-18T15:36:30.939Z,5604.00
2022-08-18T15:41:29.763Z,5404.00
2022-08-18T15:46:29.710Z,5652.00
2022-08-18T15:51:35.351Z,5684.00
2022-08-18T15:56:30.602Z,5540.00
2022-08-18T16:01:30.423Z,5456.00
2022-08-18T16:06:32.288Z,5560.00
2022-08-18T16:11:30.020Z,5240.00
2022-08-18T16:16:35.683Z,4756.00
2022-08-18T16:21:30.350Z,4400.00
2022-08-18T16:26:29.294Z,4080.00
2022-08-18T16:31:29.255Z,3840.00
2022-08-18T16:36:29.184Z,3776.00
2022-08-18T16:41:29.130Z,3492.00
2022-08-18T16:46:29.078Z,3324.00
2022-08-18T16:51:29.029Z,3184.00
2022-08-18T16:56:28.967Z,3008.00
2022-08-18T17:01:33.703Z,2760.00
2022-08-18T17:06:29.885Z,2528.00
2022-08-18T17:11:28.834Z,2288.00
2022-08-18T17:16:28.751Z,2088.00
2022-08-18T17:21:28.731Z,1872.00
2022-08-18T17:26:28.647Z,1680.00
2022-08-18T17:31:28.596Z,1552.00
2022-08-18T17:36:28.537Z,1452.00
2022-08-18T17:41:28.503Z,1304.00
2022-08-18T17:46:28.422Z,1160.00
2022-08-18T17:51:28.377Z,1068.00
2022-08-18T17:56:35.136Z,1004.00
2022-08-18T18:01:28.286Z,1016.00
2022-08-18T18:06:28.217Z,996.00
2022-08-18T18:11:28.162Z,896.00
2022-08-18T18:16:28.108Z,804.00
2022-08-18T18:21:55.358Z,696.00
2022-08-18T18:26:29.008Z,580.00
2022-08-18T18:31:28.012Z,448.00
2022-08-18T18:36:27.892Z,328.00
2022-08-18T18:41:27.852Z,220.00
2022-08-18T18:46:27.770Z,144.00
2022-08-18T18:51:33.704Z,84.00
2022-08-18T18:56:28.677Z,48.00
2022-08-18T19:01:27.622Z,28.00
2022-08-18T19:06:27.566Z,12.00
2022-08-18T19:11:27.539Z,4.00
2022-08-18T19:16:27.458Z,4.00
2022-08-18T19:22:04.135Z,0.00
2022-08-18T19:26:28.358Z,0.00
2022-08-18T19:31:27.352Z,0.00
2022-08-18T19:36:27.241Z,0.00
2022-08-18T19:41:30.777Z,0.00
2022-08-18T19:46:27.116Z,0.00
2022-08-18T19:51:27.072Z,0.00
2022-08-18T19:56:27.020Z,0.00
2022-08-18T20:01:26.990Z,0.00
2022-08-18T20:06:34.662Z,0.00
2022-08-18T20:11:41.722Z,0.00
2022-08-18T20:16:34.556Z,0.00
2022-08-18T20:21:27.741Z,0.00
2022-08-18T20:26:26.709Z,0.00
2022-08-18T20:31:26.629Z,0.00
2022-08-18T20:36:26.573Z,0.00
2022-08-18T20:41:26.525Z,0.00
2022-08-18T20:46:26.496Z,0.00
2022-08-18T20:51:26.398Z,0.00
2022-08-18T20:56:32.055Z,0.00
2022-08-18T21:01:27.398Z,0.00
2022-08-18T21:06:26.246Z,0.00
2022-08-18T21:11:31.852Z,0.00
2022-08-18T21:16:37.720Z,0.00
2022-08-18T21:21:27.442Z,0.00
2022-08-18T21:26:26.026Z,0.00
2022-08-18T21:31:42.880Z,0.00
2022-08-18T21:36:26.913Z,0.00
2022-08-18T21:41:25.863Z,0.00
2022-08-18T21:46:25.808Z,0.00
2022-08-18T21:51:25.742Z,0.00
2022-08-18T21:56:25.694Z,0.00
2022-08-18T22:01:25.721Z,0.00
2022-08-18T22:06:25.580Z,0.00
2022-08-18T22:11:59.713Z,0.00
2022-08-18T22:16:26.469Z,0.00
2022-08-18T22:21:32.650Z,0.00
2022-08-18T22:26:25.357Z,0.00
2022-08-18T22:31:25.304Z,0.00
2022-08-18T22:36:25.261Z,0.00
2022-08-18T22:41:25.182Z,0.00
2022-08-18T22:46:25.251Z,0.00
2022-08-18T22:51:25.092Z,0.00
2022-08-18T22:56:34.467Z,0.00
2022-08-18T23:01:24.971Z,0.00
2022-08-18T23:06:24.925Z,0.00
2022-08-18T23:11:24.861Z,0.00
2022-08-18T23:16:31.128Z,0.00
2022-08-18T23:21:35.455Z,0.00
2022-08-18T23:26:25.700Z,0.00
